sensor_id;sensor_type;location;lat;lon;timestamp;pressure;altitude;pressure_sealevel;temperature;humidity
46379;BME280;32084;42.254;22.744;2023-05-20T00:00:31;95472.56;;;11.88;94.02
46379;BME280;32084;42.254;22.744;2023-05-20T00:02:57;95486.25;;;11.77;92.88
46379;BME280;32084;42.254;22.744;2023-05-20T00:05:25;95481.06;;;11.76;92.84
46379;BME280;32084;42.254;22.744;2023-05-20T00:07:51;95471.19;;;11.76;92.89
46379;BME280;32084;42.254;22.744;2023-05-20T00:10:17;95472.03;;;11.77;92.49
46379;BME280;32084;42.254;22.744;2023-05-20T00:12:43;95469.81;;;11.72;93.76
46379;BME280;32084;42.254;22.744;2023-05-20T00:15:09;95471.81;;;11.70;93.40
46379;BME280;32084;42.254;22.744;2023-05-20T00:17:37;95475.66;;;11.67;93.64
46379;BME280;32084;42.254;22.744;2023-05-20T00:20:03;95468.00;;;11.72;92.98
46379;BME280;32084;42.254;22.744;2023-05-20T00:22:30;95465.31;;;11.72;93.11
46379;BME280;32084;42.254;22.744;2023-05-20T00:24:56;95458.91;;;11.65;93.69
46379;BME280;32084;42.254;22.744;2023-05-20T00:27:22;95464.94;;;11.33;94.51
46379;BME280;32084;42.254;22.744;2023-05-20T00:29:48;95468.03;;;11.20;94.01
46379;BME280;32084;42.254;22.744;2023-05-20T00:32:14;95472.97;;;11.33;94.44
46379;BME280;32084;42.254;22.744;2023-05-20T00:34:41;95478.22;;;11.43;93.98
46379;BME280;32084;42.254;22.744;2023-05-20T00:37:08;95471.84;;;11.44;93.76
46379;BME280;32084;42.254;22.744;2023-05-20T00:39:34;95474.06;;;11.48;93.60
46379;BME280;32084;42.254;22.744;2023-05-20T00:42:00;95469.25;;;11.60;93.12
46379;BME280;32084;42.254;22.744;2023-05-20T00:44:28;95456.25;;;11.65;93.23
46379;BME280;32084;42.254;22.744;2023-05-20T00:46:54;95464.44;;;11.64;92.97
46379;BME280;32084;42.254;22.744;2023-05-20T00:49:20;95465.84;;;11.16;92.72
46379;BME280;32084;42.254;22.744;2023-05-20T00:51:48;95469.91;;;11.02;94.29
46379;BME280;32084;42.254;22.744;2023-05-20T00:54:14;95470.47;;;10.87;94.85
46379;BME280;32084;42.254;22.744;2023-05-20T00:56:40;95468.53;;;10.98;94.63
46379;BME280;32084;42.254;22.744;2023-05-20T00:59:07;95468.28;;;11.09;94.59
46379;BME280;32084;42.254;22.744;2023-05-20T01:01:33;95458.53;;;11.26;93.91
46379;BME280;32084;42.254;22.744;2023-05-20T01:04:00;95465.88;;;11.24;94.56
46379;BME280;32084;42.254;22.744;2023-05-20T01:06:26;95453.75;;;11.11;93.84
46379;BME280;32084;42.254;22.744;2023-05-20T01:08:52;95462.03;;;11.00;94.10
46379;BME280;32084;42.254;22.744;2023-05-20T01:11:21;95458.91;;;11.05;94.40
46379;BME280;32084;42.254;22.744;2023-05-20T01:13:53;95456.38;;;11.03;93.28
46379;BME280;32084;42.254;22.744;2023-05-20T01:16:20;95461.72;;;11.03;93.60
46379;BME280;32084;42.254;22.744;2023-05-20T01:18:49;95467.34;;;10.74;94.87
46379;BME280;32084;42.254;22.744;2023-05-20T01:21:16;95467.13;;;10.67;96.42
46379;BME280;32084;42.254;22.744;2023-05-20T01:23:42;95471.16;;;10.89;95.73
46379;BME280;32084;42.254;22.744;2023-05-20T01:26:08;95462.81;;;10.92;94.86
46379;BME280;32084;42.254;22.744;2023-05-20T01:28:38;95464.78;;;10.90;95.46
46379;BME280;32084;42.254;22.744;2023-05-20T01:31:05;95461.41;;;11.06;94.44
46379;BME280;32084;42.254;22.744;2023-05-20T01:33:34;95455.28;;;11.14;94.11
46379;BME280;32084;42.254;22.744;2023-05-20T01:36:01;95442.97;;;11.21;93.47
46379;BME280;32084;42.254;22.744;2023-05-20T01:38:27;95455.19;;;10.80;92.00
46379;BME280;32084;42.254;22.744;2023-05-20T01:40:53;95456.59;;;10.48;93.47
46379;BME280;32084;42.254;22.744;2023-05-20T01:43:20;95450.94;;;10.51;94.61
46379;BME280;32084;42.254;22.744;2023-05-20T01:45:46;95456.66;;;10.38;96.12
46379;BME280;32084;42.254;22.744;2023-05-20T01:48:12;95459.88;;;10.60;95.94
46379;BME280;32084;42.254;22.744;2023-05-20T01:50:38;95459.47;;;10.72;95.11
46379;BME280;32084;42.254;22.744;2023-05-20T01:53:05;95457.09;;;10.87;94.71
46379;BME280;32084;42.254;22.744;2023-05-20T01:55:33;95461.66;;;10.95;93.96
46379;BME280;32084;42.254;22.744;2023-05-20T01:57:59;95455.63;;;10.93;93.70
46379;BME280;32084;42.254;22.744;2023-05-20T02:00:25;95456.16;;;10.97;93.80
46379;BME280;32084;42.254;22.744;2023-05-20T02:02:51;95453.91;;;10.66;92.13
46379;BME280;32084;42.254;22.744;2023-05-20T02:05:17;95445.22;;;10.46;93.11
46379;BME280;32084;42.254;22.744;2023-05-20T02:07:43;95441.47;;;10.39;93.36
46379;BME280;32084;42.254;22.744;2023-05-20T02:10:09;95445.09;;;10.20;94.16
46379;BME280;32084;42.254;22.744;2023-05-20T02:12:35;95456.88;;;9.99;95.90
46379;BME280;32084;42.254;22.744;2023-05-20T02:15:01;95452.50;;;10.08;96.21
46379;BME280;32084;42.254;22.744;2023-05-20T02:17:27;95453.66;;;10.23;95.31
46379;BME280;32084;42.254;22.744;2023-05-20T02:19:54;95445.13;;;10.38;94.78
46379;BME280;32084;42.254;22.744;2023-05-20T02:22:20;95447.34;;;10.42;94.75
46379;BME280;32084;42.254;22.744;2023-05-20T02:24:46;95448.72;;;10.46;94.46
46379;BME280;32084;42.254;22.744;2023-05-20T02:27:12;95446.66;;;10.58;94.65
46379;BME280;32084;42.254;22.744;2023-05-20T02:29:38;95441.47;;;10.39;96.77
46379;BME280;32084;42.254;22.744;2023-05-20T02:32:04;95441.63;;;10.37;96.53
46379;BME280;32084;42.254;22.744;2023-05-20T02:34:31;95436.97;;;10.57;95.78
46379;BME280;32084;42.254;22.744;2023-05-20T02:36:57;95442.66;;;10.62;95.46
46379;BME280;32084;42.254;22.744;2023-05-20T02:39:23;95435.59;;;10.35;93.84
46379;BME280;32084;42.254;22.744;2023-05-20T02:41:49;95449.59;;;10.19;94.96
46379;BME280;32084;42.254;22.744;2023-05-20T02:44:15;95433.09;;;10.24;95.44
46379;BME280;32084;42.254;22.744;2023-05-20T02:46:41;95428.41;;;10.35;95.71
46379;BME280;32084;42.254;22.744;2023-05-20T02:49:08;95437.63;;;10.23;95.24
46379;BME280;32084;42.254;22.744;2023-05-20T02:51:35;95450.31;;;9.93;97.64
46379;BME280;32084;42.254;22.744;2023-05-20T02:54:01;95459.41;;;10.01;97.61
46379;BME280;32084;42.254;22.744;2023-05-20T02:56:27;95457.72;;;10.00;97.37
46379;BME280;32084;42.254;22.744;2023-05-20T02:58:53;95449.00;;;10.25;96.57
46379;BME280;32084;42.254;22.744;2023-05-20T03:01:19;95472.16;;;10.34;95.84
46379;BME280;32084;42.254;22.744;2023-05-20T03:03:45;95475.00;;;10.33;95.90
46379;BME280;32084;42.254;22.744;2023-05-20T03:06:11;95477.31;;;10.18;95.81
46379;BME280;32084;42.254;22.744;2023-05-20T03:08:37;95471.47;;;10.32;96.05
46379;BME280;32084;42.254;22.744;2023-05-20T03:11:04;95465.78;;;10.45;95.37
46379;BME280;32084;42.254;22.744;2023-05-20T03:13:30;95470.03;;;10.56;95.37
46379;BME280;32084;42.254;22.744;2023-05-20T03:15:56;95480.09;;;10.26;93.67
46379;BME280;32084;42.254;22.744;2023-05-20T03:18:22;95479.16;;;9.90;95.08
46379;BME280;32084;42.254;22.744;2023-05-20T03:20:48;95482.28;;;9.85;95.36
46379;BME280;32084;42.254;22.744;2023-05-20T03:23:14;95459.63;;;9.89;95.89
46379;BME280;32084;42.254;22.744;2023-05-20T03:25:40;95490.19;;;10.05;94.88
46379;BME280;32084;42.254;22.744;2023-05-20T03:28:06;95486.13;;;10.01;96.44
46379;BME280;32084;42.254;22.744;2023-05-20T03:30:32;95493.19;;;10.20;96.25
46379;BME280;32084;42.254;22.744;2023-05-20T03:32:58;95486.38;;;10.53;94.90
46379;BME280;32084;42.254;22.744;2023-05-20T03:35:25;95498.09;;;10.70;94.85
46379;BME280;32084;42.254;22.744;2023-05-20T03:37:51;95509.25;;;10.38;91.81
46379;BME280;32084;42.254;22.744;2023-05-20T03:40:18;95522.94;;;10.34;93.69
46379;BME280;32084;42.254;22.744;2023-05-20T03:42:47;95525.81;;;10.51;94.84
46379;BME280;32084;42.254;22.744;2023-05-20T03:45:14;95531.53;;;10.74;94.73
46379;BME280;32084;42.254;22.744;2023-05-20T03:47:41;95521.97;;;10.71;93.16
46379;BME280;32084;42.254;22.744;2023-05-20T03:50:07;95514.19;;;10.78;92.87
46379;BME280;32084;42.254;22.744;2023-05-20T03:52:33;95518.53;;;10.79;92.62
46379;BME280;32084;42.254;22.744;2023-05-20T03:54:59;95523.66;;;10.72;92.58
46379;BME280;32084;42.254;22.744;2023-05-20T03:57:25;95517.31;;;10.73;93.48
46379;BME280;32084;42.254;22.744;2023-05-20T03:59:51;95514.56;;;11.01;93.22
46379;BME280;32084;42.254;22.744;2023-05-20T04:02:17;95511.44;;;11.32;92.11
46379;BME280;32084;42.254;22.744;2023-05-20T04:04:43;95504.97;;;11.69;92.17
46379;BME280;32084;42.254;22.744;2023-05-20T04:07:09;95512.75;;;11.80;90.44
46379;BME280;32084;42.254;22.744;2023-05-20T04:09:36;95504.72;;;11.54;90.51
46379;BME280;32084;42.254;22.744;2023-05-20T04:12:02;95506.34;;;11.73;91.09
46379;BME280;32084;42.254;22.744;2023-05-20T04:14:28;95510.00;;;12.06;90.87
46379;BME280;32084;42.254;22.744;2023-05-20T04:16:54;95506.94;;;12.36;90.70
46379;BME280;32084;42.254;22.744;2023-05-20T04:19:21;95507.16;;;12.50;90.25
46379;BME280;32084;42.254;22.744;2023-05-20T04:21:48;95511.50;;;12.43;91.46
46379;BME280;32084;42.254;22.744;2023-05-20T04:24:15;95512.00;;;12.55;90.95
46379;BME280;32084;42.254;22.744;2023-05-20T04:26:41;95504.31;;;12.68;90.78
46379;BME280;32084;42.254;22.744;2023-05-20T04:29:07;95507.06;;;13.01;90.79
46379;BME280;32084;42.254;22.744;2023-05-20T04:31:33;95512.59;;;13.24;88.75
46379;BME280;32084;42.254;22.744;2023-05-20T04:33:59;95516.13;;;13.41;87.54
46379;BME280;32084;42.254;22.744;2023-05-20T04:36:25;95520.09;;;13.62;86.85
46379;BME280;32084;42.254;22.744;2023-05-20T04:38:53;95528.66;;;13.74;86.01
46379;BME280;32084;42.254;22.744;2023-05-20T04:41:19;95521.28;;;13.76;84.25
46379;BME280;32084;42.254;22.744;2023-05-20T04:43:45;95522.56;;;13.88;84.50
46379;BME280;32084;42.254;22.744;2023-05-20T04:46:11;95515.81;;;13.92;83.51
46379;BME280;32084;42.254;22.744;2023-05-20T04:48:38;95512.59;;;14.05;84.40
46379;BME280;32084;42.254;22.744;2023-05-20T04:51:04;95522.66;;;14.11;83.30
46379;BME280;32084;42.254;22.744;2023-05-20T04:53:31;95518.09;;;14.20;83.11
46379;BME280;32084;42.254;22.744;2023-05-20T04:55:58;95518.41;;;14.25;83.55
46379;BME280;32084;42.254;22.744;2023-05-20T04:58:24;95520.25;;;14.24;81.65
46379;BME280;32084;42.254;22.744;2023-05-20T05:00:51;95526.38;;;14.50;82.53
46379;BME280;32084;42.254;22.744;2023-05-20T05:03:17;95527.25;;;14.73;79.42
46379;BME280;32084;42.254;22.744;2023-05-20T05:05:43;95525.47;;;14.66;80.10
46379;BME280;32084;42.254;22.744;2023-05-20T05:08:09;95528.63;;;14.69;80.62
46379;BME280;32084;42.254;22.744;2023-05-20T05:10:38;95535.72;;;14.70;79.98
46379;BME280;32084;42.254;22.744;2023-05-20T05:13:05;95528.75;;;14.76;79.40
46379;BME280;32084;42.254;22.744;2023-05-20T05:15:31;95527.69;;;14.85;77.21
46379;BME280;32084;42.254;22.744;2023-05-20T05:17:57;95524.09;;;14.70;76.27
46379;BME280;32084;42.254;22.744;2023-05-20T05:20:23;95525.84;;;14.86;79.02
46379;BME280;32084;42.254;22.744;2023-05-20T05:22:49;95517.88;;;14.92;78.03
46379;BME280;32084;42.254;22.744;2023-05-20T05:25:15;95515.50;;;15.20;77.32
46379;BME280;32084;42.254;22.744;2023-05-20T05:27:41;95515.09;;;15.47;76.71
46379;BME280;32084;42.254;22.744;2023-05-20T05:30:09;95513.44;;;15.60;74.80
46379;BME280;32084;42.254;22.744;2023-05-20T05:32:36;95512.41;;;15.85;74.11
46379;BME280;32084;42.254;22.744;2023-05-20T05:35:02;95512.75;;;15.81;73.50
46379;BME280;32084;42.254;22.744;2023-05-20T05:37:28;95513.50;;;16.20;72.10
46379;BME280;32084;42.254;22.744;2023-05-20T05:39:55;95511.81;;;16.34;72.79
46379;BME280;32084;42.254;22.744;2023-05-20T05:42:21;95515.63;;;16.39;71.77
46379;BME280;32084;42.254;22.744;2023-05-20T05:44:47;95515.38;;;16.71;72.11
46379;BME280;32084;42.254;22.744;2023-05-20T05:47:13;95518.97;;;16.56;71.47
46379;BME280;32084;42.254;22.744;2023-05-20T05:49:40;95514.97;;;16.52;73.34
46379;BME280;32084;42.254;22.744;2023-05-20T05:52:06;95518.03;;;16.49;72.13
46379;BME280;32084;42.254;22.744;2023-05-20T05:54:32;95512.97;;;16.61;70.72
46379;BME280;32084;42.254;22.744;2023-05-20T05:56:58;95513.44;;;16.65;69.43
46379;BME280;32084;42.254;22.744;2023-05-20T05:59:24;95508.69;;;16.67;69.77
46379;BME280;32084;42.254;22.744;2023-05-20T06:01:50;95511.72;;;17.36;71.31
46379;BME280;32084;42.254;22.744;2023-05-20T06:04:16;95520.44;;;17.88;69.26
46379;BME280;32084;42.254;22.744;2023-05-20T06:06:42;95509.25;;;17.91;67.39
46379;BME280;32084;42.254;22.744;2023-05-20T06:09:08;95520.31;;;18.31;67.94
46379;BME280;32084;42.254;22.744;2023-05-20T06:11:35;95501.31;;;18.25;69.77
46379;BME280;32084;42.254;22.744;2023-05-20T06:14:01;95507.50;;;18.53;69.98
46379;BME280;32084;42.254;22.744;2023-05-20T06:16:27;95505.69;;;18.67;68.43
46379;BME280;32084;42.254;22.744;2023-05-20T06:18:53;95503.41;;;18.71;69.55
46379;BME280;32084;42.254;22.744;2023-05-20T06:21:22;95500.13;;;18.82;67.38
46379;BME280;32084;42.254;22.744;2023-05-20T06:23:49;95494.13;;;18.94;69.23
46379;BME280;32084;42.254;22.744;2023-05-20T06:26:15;95491.84;;;19.04;68.17
46379;BME280;32084;42.254;22.744;2023-05-20T06:28:41;95500.59;;;18.99;67.99
46379;BME280;32084;42.254;22.744;2023-05-20T06:31:07;95491.88;;;19.30;66.38
46379;BME280;32084;42.254;22.744;2023-05-20T06:33:33;95496.91;;;19.47;66.87
46379;BME280;32084;42.254;22.744;2023-05-20T06:35:59;95500.63;;;19.46;65.03
46379;BME280;32084;42.254;22.744;2023-05-20T06:38:26;95499.16;;;19.37;64.45
46379;BME280;32084;42.254;22.744;2023-05-20T06:40:52;95498.97;;;19.65;66.43
46379;BME280;32084;42.254;22.744;2023-05-20T06:43:18;95498.19;;;19.84;63.52
46379;BME280;32084;42.254;22.744;2023-05-20T06:45:44;95501.50;;;20.00;65.04
46379;BME280;32084;42.254;22.744;2023-05-20T06:48:10;95492.69;;;20.04;63.63
46379;BME280;32084;42.254;22.744;2023-05-20T06:50:37;95498.41;;;20.61;61.56
46379;BME280;32084;42.254;22.744;2023-05-20T06:53:03;95491.72;;;20.57;60.19
46379;BME280;32084;42.254;22.744;2023-05-20T06:55:29;95489.91;;;20.90;58.91
46379;BME280;32084;42.254;22.744;2023-05-20T06:57:55;95482.75;;;21.02;58.69
46379;BME280;32084;42.254;22.744;2023-05-20T07:00:21;95483.34;;;21.36;58.74
46379;BME280;32084;42.254;22.744;2023-05-20T07:02:48;95482.16;;;21.82;56.12
46379;BME280;32084;42.254;22.744;2023-05-20T07:05:14;95482.78;;;21.84;56.21
46379;BME280;32084;42.254;22.744;2023-05-20T07:07:40;95481.91;;;22.09;55.82
46379;BME280;32084;42.254;22.744;2023-05-20T07:10:06;95472.66;;;22.10;57.61
46379;BME280;32084;42.254;22.744;2023-05-20T07:12:32;95482.22;;;22.19;56.26
46379;BME280;32084;42.254;22.744;2023-05-20T07:14:58;95481.34;;;22.25;54.92
46379;BME280;32084;42.254;22.744;2023-05-20T07:17:25;95474.16;;;21.87;52.26
46379;BME280;32084;42.254;22.744;2023-05-20T07:19:51;95465.63;;;21.83;53.76
46379;BME280;32084;42.254;22.744;2023-05-20T07:22:17;95467.56;;;22.20;54.52
46379;BME280;32084;42.254;22.744;2023-05-20T07:24:44;95470.72;;;22.72;51.86
46379;BME280;32084;42.254;22.744;2023-05-20T07:27:10;95461.94;;;22.70;53.47
46379;BME280;32084;42.254;22.744;2023-05-20T07:29:36;95455.03;;;22.37;51.81
46379;BME280;32084;42.254;22.744;2023-05-20T07:32:02;95443.91;;;22.39;52.31
46379;BME280;32084;42.254;22.744;2023-05-20T07:34:30;95445.59;;;22.70;50.58
46379;BME280;32084;42.254;22.744;2023-05-20T07:36:56;95439.22;;;22.76;52.53
46379;BME280;32084;42.254;22.744;2023-05-20T07:39:22;95431.34;;;23.29;52.79
46379;BME280;32084;42.254;22.744;2023-05-20T07:41:49;95432.66;;;23.26;51.05
46379;BME280;32084;42.254;22.744;2023-05-20T07:44:15;95443.53;;;23.68;50.88
46379;BME280;32084;42.254;22.744;2023-05-20T07:46:43;95439.53;;;23.94;50.07
46379;BME280;32084;42.254;22.744;2023-05-20T07:49:10;95433.09;;;24.12;49.09
46379;BME280;32084;42.254;22.744;2023-05-20T07:51:36;95425.72;;;24.25;50.11
46379;BME280;32084;42.254;22.744;2023-05-20T07:54:02;95424.44;;;24.15;49.57
46379;BME280;32084;42.254;22.744;2023-05-20T07:56:28;95416.91;;;24.34;47.91
46379;BME280;32084;42.254;22.744;2023-05-20T07:58:55;95408.75;;;24.11;48.49
46379;BME280;32084;42.254;22.744;2023-05-20T08:01:23;95406.56;;;24.36;48.10
46379;BME280;32084;42.254;22.744;2023-05-20T08:03:49;95405.69;;;24.48;47.84
46379;BME280;32084;42.254;22.744;2023-05-20T08:06:15;95408.00;;;24.80;46.75
46379;BME280;32084;42.254;22.744;2023-05-20T08:08:42;95405.38;;;25.02;44.68
46379;BME280;32084;42.254;22.744;2023-05-20T08:11:08;95395.44;;;24.96;45.47
46379;BME280;32084;42.254;22.744;2023-05-20T08:13:35;95392.94;;;24.94;46.09
46379;BME280;32084;42.254;22.744;2023-05-20T08:16:01;95397.00;;;24.51;46.41
46379;BME280;32084;42.254;22.744;2023-05-20T08:18:29;95393.75;;;24.94;46.27
46379;BME280;32084;42.254;22.744;2023-05-20T08:20:55;95387.28;;;24.84;46.35
46379;BME280;32084;42.254;22.744;2023-05-20T08:23:21;95391.28;;;24.93;45.85
46379;BME280;32084;42.254;22.744;2023-05-20T08:25:47;95396.03;;;25.14;44.24
46379;BME280;32084;42.254;22.744;2023-05-20T08:28:13;95396.63;;;25.17;43.40
46379;BME280;32084;42.254;22.744;2023-05-20T08:30:39;95391.00;;;24.78;44.06
46379;BME280;32084;42.254;22.744;2023-05-20T08:33:06;95392.41;;;24.80;43.06
46379;BME280;32084;42.254;22.744;2023-05-20T08:35:32;95389.78;;;24.85;42.46
46379;BME280;32084;42.254;22.744;2023-05-20T08:37:58;95391.84;;;25.24;41.41
46379;BME280;32084;42.254;22.744;2023-05-20T08:40:26;95380.59;;;25.37;44.27
46379;BME280;32084;42.254;22.744;2023-05-20T08:42:52;95377.66;;;25.27;44.41
46379;BME280;32084;42.254;22.744;2023-05-20T08:45:19;95381.75;;;25.41;41.33
46379;BME280;32084;42.254;22.744;2023-05-20T08:47:46;95379.16;;;25.51;43.01
46379;BME280;32084;42.254;22.744;2023-05-20T08:50:12;95370.94;;;25.51;42.33
46379;BME280;32084;42.254;22.744;2023-05-20T08:52:43;95365.81;;;25.55;43.46
46379;BME280;32084;42.254;22.744;2023-05-20T08:55:14;95359.97;;;25.68;44.62
46379;BME280;32084;42.254;22.744;2023-05-20T08:57:42;95369.88;;;25.69;41.25
46379;BME280;32084;42.254;22.744;2023-05-20T09:00:11;95369.56;;;25.49;43.32
46379;BME280;32084;42.254;22.744;2023-05-20T09:02:38;95370.03;;;25.12;41.15
46379;BME280;32084;42.254;22.744;2023-05-20T09:05:04;95360.66;;;25.59;42.70
46379;BME280;32084;42.254;22.744;2023-05-20T09:07:31;95354.91;;;25.77;42.97
46379;BME280;32084;42.254;22.744;2023-05-20T09:09:57;95361.66;;;26.08;40.89
46379;BME280;32084;42.254;22.744;2023-05-20T09:12:23;95358.88;;;25.86;40.24
46379;BME280;32084;42.254;22.744;2023-05-20T09:14:49;95356.19;;;25.69;41.08
46379;BME280;32084;42.254;22.744;2023-05-20T09:17:15;95365.31;;;25.58;40.87
46379;BME280;32084;42.254;22.744;2023-05-20T09:19:43;95354.22;;;25.48;41.67
46379;BME280;32084;42.254;22.744;2023-05-20T09:22:09;95344.41;;;25.69;42.27
46379;BME280;32084;42.254;22.744;2023-05-20T09:24:35;95347.34;;;25.84;41.89
46379;BME280;32084;42.254;22.744;2023-05-20T09:27:01;95341.03;;;26.01;42.45
46379;BME280;32084;42.254;22.744;2023-05-20T09:29:27;95344.66;;;26.06;40.03
46379;BME280;32084;42.254;22.744;2023-05-20T09:31:54;95338.94;;;25.69;40.53
46379;BME280;32084;42.254;22.744;2023-05-20T09:34:20;95338.38;;;25.33;38.24
46379;BME280;32084;42.254;22.744;2023-05-20T09:36:48;95332.81;;;25.45;38.74
46379;BME280;32084;42.254;22.744;2023-05-20T09:39:15;95313.84;;;25.77;41.37
46379;BME280;32084;42.254;22.744;2023-05-20T09:42:04;95318.22;;;25.95;41.05
46379;BME280;32084;42.254;22.744;2023-05-20T09:44:32;95306.50;;;26.00;43.46
46379;BME280;32084;42.254;22.744;2023-05-20T09:46:58;95300.38;;;25.93;41.57
46379;BME280;32084;42.254;22.744;2023-05-20T09:49:26;95308.66;;;25.59;40.71
46379;BME280;32084;42.254;22.744;2023-05-20T09:51:53;95308.31;;;25.55;40.14
46379;BME280;32084;42.254;22.744;2023-05-20T09:54:21;95287.78;;;25.92;43.51
46379;BME280;32084;42.254;22.744;2023-05-20T09:56:49;95287.50;;;26.15;44.06
46379;BME280;32084;42.254;22.744;2023-05-20T09:59:15;95281.38;;;26.30;43.16
46379;BME280;32084;42.254;22.744;2023-05-20T10:01:43;95270.94;;;26.27;42.56
46379;BME280;32084;42.254;22.744;2023-05-20T10:04:09;95274.69;;;25.99;43.56
46379;BME280;32084;42.254;22.744;2023-05-20T10:19:42;95240.91;;;26.37;41.06
46379;BME280;32084;42.254;22.744;2023-05-20T10:22:10;95237.31;;;26.37;40.89
46379;BME280;32084;42.254;22.744;2023-05-20T10:24:40;95239.75;;;26.33;42.18
46379;BME280;32084;42.254;22.744;2023-05-20T10:27:07;95231.41;;;26.50;41.47
46379;BME280;32084;42.254;22.744;2023-05-20T10:29:41;95235.19;;;26.44;41.56
46379;BME280;32084;42.254;22.744;2023-05-20T10:32:07;95223.66;;;26.15;40.39
46379;BME280;32084;42.254;22.744;2023-05-20T10:34:43;95231.56;;;26.11;40.38
46379;BME280;32084;42.254;22.744;2023-05-20T10:37:19;95222.16;;;26.29;40.18
46379;BME280;32084;42.254;22.744;2023-05-20T10:39:45;95217.72;;;26.50;41.92
46379;BME280;32084;42.254;22.744;2023-05-20T10:42:11;95222.69;;;25.82;40.29
46379;BME280;32084;42.254;22.744;2023-05-20T10:44:44;95225.78;;;25.24;38.46
46379;BME280;32084;42.254;22.744;2023-05-20T10:47:10;95228.28;;;24.92;40.85
46379;BME280;32084;42.254;22.744;2023-05-20T10:49:43;95213.19;;;25.23;38.69
46379;BME280;32084;42.254;22.744;2023-05-20T10:52:13;95211.31;;;25.68;38.86
46379;BME280;32084;42.254;22.744;2023-05-20T10:54:46;95212.81;;;25.98;35.67
46379;BME280;32084;42.254;22.744;2023-05-20T10:57:12;95208.13;;;26.20;36.68
46379;BME280;32084;42.254;22.744;2023-05-20T10:59:39;95200.16;;;25.97;38.91
46379;BME280;32084;42.254;22.744;2023-05-20T11:02:06;95207.69;;;25.40;37.80
46379;BME280;32084;42.254;22.744;2023-05-20T11:04:33;95198.53;;;24.96;37.82
46379;BME280;32084;42.254;22.744;2023-05-20T11:06:59;95189.31;;;24.85;40.69
46379;BME280;32084;42.254;22.744;2023-05-20T11:09:25;95194.72;;;24.80;40.20
46379;BME280;32084;42.254;22.744;2023-05-20T11:11:52;95192.91;;;24.68;40.78
46379;BME280;32084;42.254;22.744;2023-05-20T11:14:18;95194.06;;;24.72;40.13
46379;BME280;32084;42.254;22.744;2023-05-20T11:16:44;95196.22;;;24.87;38.54
46379;BME280;32084;42.254;22.744;2023-05-20T11:19:14;95197.56;;;25.41;39.69
46379;BME280;32084;42.254;22.744;2023-05-20T11:21:41;95190.38;;;25.79;38.47
46379;BME280;32084;42.254;22.744;2023-05-20T11:24:07;95200.50;;;25.56;37.36
46379;BME280;32084;42.254;22.744;2023-05-20T11:26:33;95199.88;;;25.32;37.12
46379;BME280;32084;42.254;22.744;2023-05-20T11:29:00;95191.72;;;25.54;38.95
46379;BME280;32084;42.254;22.744;2023-05-20T11:31:26;95193.56;;;25.48;37.88
46379;BME280;32084;42.254;22.744;2023-05-20T11:33:52;95188.94;;;24.76;38.72
46379;BME280;32084;42.254;22.744;2023-05-20T11:36:18;95192.31;;;24.21;40.29
46379;BME280;32084;42.254;22.744;2023-05-20T11:38:45;95202.53;;;23.96;42.11
46379;BME280;32084;42.254;22.744;2023-05-20T11:41:12;95230.69;;;22.97;43.54
46379;BME280;32084;42.254;22.744;2023-05-20T11:43:38;95230.56;;;22.38;45.74
46379;BME280;32084;42.254;22.744;2023-05-20T11:46:04;95223.38;;;22.14;46.68
46379;BME280;32084;42.254;22.744;2023-05-20T11:48:30;95234.44;;;22.00;46.38
46379;BME280;32084;42.254;22.744;2023-05-20T11:50:56;95238.97;;;21.76;47.64
46379;BME280;32084;42.254;22.744;2023-05-20T11:53:23;95240.66;;;21.59;47.70
46379;BME280;32084;42.254;22.744;2023-05-20T11:55:50;95243.75;;;21.44;47.60
46379;BME280;32084;42.254;22.744;2023-05-20T11:58:20;95248.44;;;21.55;47.41
46379;BME280;32084;42.254;22.744;2023-05-20T12:00:47;95238.78;;;21.59;47.75
46379;BME280;32084;42.254;22.744;2023-05-20T12:03:13;95243.28;;;21.66;48.39
46379;BME280;32084;42.254;22.744;2023-05-20T12:05:39;95234.09;;;21.67;48.08
46379;BME280;32084;42.254;22.744;2023-05-20T12:08:05;95230.50;;;22.15;47.59
46379;BME280;32084;42.254;22.744;2023-05-20T12:10:31;95227.66;;;22.52;45.54
46379;BME280;32084;42.254;22.744;2023-05-20T12:12:58;95225.34;;;23.03;46.72
46379;BME280;32084;42.254;22.744;2023-05-20T12:15:24;95221.78;;;23.26;45.31
46379;BME280;32084;42.254;22.744;2023-05-20T12:17:51;95212.56;;;23.03;43.33
46379;BME280;32084;42.254;22.744;2023-05-20T12:20:18;95211.69;;;23.03;45.14
46379;BME280;32084;42.254;22.744;2023-05-20T12:22:44;95214.31;;;23.33;45.40
46379;BME280;32084;42.254;22.744;2023-05-20T12:25:14;95209.22;;;23.25;45.16
46379;BME280;32084;42.254;22.744;2023-05-20T12:27:41;95214.34;;;23.21;42.94
46379;BME280;32084;42.254;22.744;2023-05-20T12:30:08;95208.16;;;23.14;42.93
46379;BME280;32084;42.254;22.744;2023-05-20T12:32:35;95203.19;;;23.23;43.34
46379;BME280;32084;42.254;22.744;2023-05-20T12:35:01;95200.56;;;23.16;44.19
46379;BME280;32084;42.254;22.744;2023-05-20T12:37:27;95196.81;;;23.05;42.92
46379;BME280;32084;42.254;22.744;2023-05-20T12:39:53;95197.59;;;22.94;43.55
46379;BME280;32084;42.254;22.744;2023-05-20T12:42:19;95186.13;;;22.92;42.18
46379;BME280;32084;42.254;22.744;2023-05-20T12:44:46;95207.06;;;22.79;41.69
46379;BME280;32084;42.254;22.744;2023-05-20T12:47:12;95187.19;;;22.67;42.46
46379;BME280;32084;42.254;22.744;2023-05-20T12:49:38;95183.38;;;22.56;42.96
46379;BME280;32084;42.254;22.744;2023-05-20T12:52:04;95179.69;;;22.51;43.09
46379;BME280;32084;42.254;22.744;2023-05-20T12:54:30;95168.09;;;22.67;43.88
46379;BME280;32084;42.254;22.744;2023-05-20T12:56:57;95161.69;;;22.97;43.05
46379;BME280;32084;42.254;22.744;2023-05-20T12:59:23;95147.72;;;23.05;43.24